Time;durP1;ratioP1;P1;durP2;ratioP2;P2;SDS_P1;SDS_P2;PMS_P1;PMS_P2;Temp;Humidity;BMP_temperature;BMP_pressure;BME280_temperature;BME280_humidity;BME280_pressure;Samples;Min_cycle;Max_cycle;Signal;HPM_P1;HPM_P2
2021/12/28 00:01:11;;;;;;;75.63;34.70;;;;;;;-5.54;78.28;99881.83;1748879;81;21003;-71
2021/12/28 00:03:42;;;;;;;84.17;37.20;;;;;;;-5.59;78.25;99877.47;1762915;81;21475;-71
2021/12/28 00:06:10;;;;;;;;;;;;;;;-5.66;78.32;99867.11;1765922;81;21023;-71
2021/12/28 00:08:39;;;;;;;82.40;35.67;;;;;;;-5.68;78.37;99869.19;1763460;80;21389;-71
2021/12/28 00:11:06;;;;;;;84.47;36.33;;;;;;;-5.72;78.41;99866.99;1748422;81;21119;-71
2021/12/28 00:13:35;;;;;;;80.90;36.43;;;;;;;-5.72;78.43;99878.91;1739801;82;21026;-71
2021/12/28 00:18:35;;;;;;;92.80;36.23;;;;;;;-5.75;78.47;99864.80;1740129;82;21496;-71
2021/12/28 00:21:05;;;;;;;90.33;36.30;;;;;;;-5.77;78.46;99866.04;1739844;82;21280;-71
2021/12/28 00:23:38;;;;;;;83.30;36.13;;;;;;;-5.79;78.50;99856.23;1740321;82;21074;-71
2021/12/28 00:26:09;;;;;;;95.30;40.17;;;;;;;-5.81;78.46;99850.66;1740092;81;20955;-71
2021/12/28 00:28:36;;;;;;;88.03;37.10;;;;;;;-5.84;78.57;99856.55;1739348;82;21051;-71
2021/12/28 00:31:06;;;;;;;92.10;37.23;;;;;;;-5.87;78.57;99855.22;1740326;82;21027;-71
2021/12/28 00:33:33;;;;;;;87.53;37.43;;;;;;;-5.89;78.56;99852.62;1740114;82;21350;-71
2021/12/28 00:36:00;;;;;;;90.47;37.47;;;;;;;-5.90;78.54;99847.08;1739680;82;21352;-71
2021/12/28 00:38:28;;;;;;;87.13;36.30;;;;;;;-5.91;78.54;99847.04;1715259;82;21461;-71
2021/12/28 00:41:02;;;;;;;88.63;37.07;;;;;;;-5.93;78.60;99852.12;1739977;82;21074;-71
2021/12/28 00:43:31;;;;;;;85.93;37.93;;;;;;;-5.93;78.56;99844.89;1740151;82;21574;-71
2021/12/28 00:46:00;;;;;;;87.80;36.57;;;;;;;-5.93;78.58;99844.47;1739982;82;21022;-71
2021/12/28 00:48:27;;;;;;;82.20;36.63;;;;;;;-5.93;78.56;99843.62;1739951;82;21061;-71
2021/12/28 00:50:56;;;;;;;88.27;39.27;;;;;;;-5.96;78.52;99841.01;1739770;82;21066;-71
2021/12/28 00:53:23;;;;;;;83.90;37.87;;;;;;;-5.97;78.54;99838.02;1739838;81;21447;-71
2021/12/28 00:55:51;;;;;;;89.30;38.77;;;;;;;-6.00;78.59;99836.27;1753179;81;21040;-71
2021/12/28 00:58:18;;;;;;;90.37;39.67;;;;;;;-6.01;78.58;99841.32;1753117;81;21466;-71
2021/12/28 01:00:46;;;;;;;85.40;36.73;;;;;;;-6.02;78.56;99843.44;1753144;80;21473;-71
2021/12/28 01:03:15;;;;;;;83.93;37.93;;;;;;;-6.02;78.58;99852.37;1752939;81;21290;-71
2021/12/28 01:05:44;;;;;;;90.37;37.77;;;;;;;-6.03;78.59;99851.52;1753053;81;21066;-71
2021/12/28 01:08:12;;;;;;;91.40;38.50;;;;;;;-6.04;78.60;99857.46;1753103;81;21540;-71
2021/12/28 01:10:52;;;;;;;92.37;39.57;;;;;;;-6.05;78.62;99858.27;1753254;81;21232;-71
2021/12/28 01:13:21;;;;;;;100.37;39.87;;;;;;;-6.04;78.62;99862.95;1753225;81;21116;-71
2021/12/28 01:15:49;;;;;;;92.27;37.40;;;;;;;-6.04;78.64;99871.87;1753420;81;20998;-71
2021/12/28 01:18:16;;;;;;;78.67;34.83;;;;;;;-6.08;78.61;99875.64;1752956;81;21043;-71
2021/12/28 01:20:44;;;;;;;94.07;38.27;;;;;;;-6.04;78.70;99880.81;1753424;80;21106;-71
2021/12/28 01:23:11;;;;;;;83.73;35.73;;;;;;;-6.02;78.69;99872.78;1753269;81;21047;-71
2021/12/28 01:25:40;;;;;;;90.93;37.47;;;;;;;-6.02;78.60;99874.91;1753519;81;21100;-71
2021/12/28 01:28:08;;;;;;;89.77;37.60;;;;;;;-6.02;78.54;99874.06;1753158;81;20959;-71
2021/12/28 01:30:39;;;;;;;83.57;37.00;;;;;;;-6.03;78.40;99869.80;1753546;81;21008;-71
2021/12/28 01:33:06;;;;;;;84.95;38.55;;;;;;;-6.06;78.44;99860.38;1753278;81;21023;-71
2021/12/28 01:35:34;;;;;;;93.87;37.90;;;;;;;-6.06;78.43;99854.86;1753616;81;21120;-71
2021/12/28 01:38:02;;;;;;;87.23;37.43;;;;;;;-6.09;78.42;99845.02;1753204;81;21172;-71
2021/12/28 01:40:34;;;;;;;97.73;39.30;;;;;;;-6.10;78.49;99836.89;1753463;81;20976;-71
2021/12/28 01:43:07;;;;;;;93.50;39.03;;;;;;;-6.14;78.59;99838.53;1753366;81;21529;-71
2021/12/28 01:45:51;;;;;;;93.07;38.10;;;;;;;-6.15;78.66;99833.37;1753599;81;21039;-71
2021/12/28 01:48:29;;;;;;;91.03;37.50;;;;;;;-6.19;78.68;99829.06;1753266;81;21031;-71
2021/12/28 01:51:01;;;;;;;86.80;38.70;;;;;;;-6.21;78.78;99827.73;1753612;81;21092;-71
2021/12/28 01:53:31;;;;;;;90.83;40.10;;;;;;;-6.22;78.77;99831.13;1753223;81;21015;-71
2021/12/28 01:56:01;;;;;;;96.50;38.20;;;;;;;-6.22;78.74;99834.95;1738268;80;21006;-71
2021/12/28 01:58:28;;;;;;;94.58;38.20;;;;;;;-6.24;78.68;99824.27;1736973;82;21003;-71
2021/12/28 02:00:56;;;;;;;85.57;38.90;;;;;;;-6.25;78.68;99822.14;1737179;82;21464;-71
2021/12/28 02:03:26;;;;;;;84.37;36.63;;;;;;;-6.25;78.75;99826.38;1736782;82;21123;-72
2021/12/28 02:05:54;;;;;;;94.00;39.38;;;;;;;-6.26;78.78;99831.91;1737200;82;21023;-72
2021/12/28 02:08:22;;;;;;;88.13;38.57;;;;;;;-6.25;78.78;99821.28;1736849;82;21537;-71
2021/12/28 02:10:53;;;;;;;91.27;38.50;;;;;;;-6.26;78.77;99816.99;1737099;82;20982;-71
2021/12/28 02:13:21;;;;;;;92.90;39.53;;;;;;;-6.26;78.77;99814.44;1736906;82;21105;-71
2021/12/28 02:15:49;;;;;;;87.07;37.93;;;;;;;-6.27;78.71;99811.45;1737043;82;21091;-71
2021/12/28 02:18:20;;;;;;;92.13;40.17;;;;;;;-6.26;78.82;99814.44;1736792;82;21006;-71
2021/12/28 02:20:49;;;;;;;94.13;39.70;;;;;;;-6.31;78.73;99807.98;1737125;82;20979;-71
2021/12/28 02:23:16;;;;;;;83.40;38.80;;;;;;;-6.31;78.78;99802.47;1736846;82;21026;-71
2021/12/28 02:25:45;;;;;;;87.30;38.87;;;;;;;-6.31;78.85;99808.84;1736972;82;21121;-71
2021/12/28 02:28:14;;;;;;;99.23;40.70;;;;;;;-6.30;78.78;99801.63;1736805;82;21475;-71
2021/12/28 02:30:45;;;;;;;94.13;40.80;;;;;;;-6.32;78.73;99799.88;1736966;82;20983;-71
2021/12/28 02:33:13;;;;;;;97.57;39.77;;;;;;;-6.35;78.77;99785.78;1736872;82;21523;-71
2021/12/28 02:35:41;;;;;;;97.67;40.57;;;;;;;-6.38;78.83;99787.85;1737141;82;21031;-71
2021/12/28 02:38:11;;;;;;;94.63;39.33;;;;;;;-6.40;78.88;99786.09;1736838;82;21022;-71
2021/12/28 02:40:42;;;;;;;95.28;41.75;;;;;;;-6.43;78.98;99777.97;1737263;82;21042;-71
2021/12/28 02:43:13;;;;;;;96.45;40.12;;;;;;;-6.45;79.00;99777.09;1736897;82;21030;-71
2021/12/28 02:45:54;;;;;;;99.20;40.67;;;;;;;-6.45;79.09;99772.42;1737116;82;21037;-71
2021/12/28 02:48:22;;;;;;;100.50;39.40;;;;;;;-6.44;79.08;99769.88;1736837;82;21014;-71
2021/12/28 02:50:54;;;;;;;95.47;41.10;;;;;;;-6.45;79.05;99788.56;1737094;82;20971;-71
2021/12/28 02:53:23;;;;;;;95.10;39.57;;;;;;;-6.45;79.09;99788.98;1735680;81;21135;-71
2021/12/28 02:55:52;;;;;;;100.73;40.33;;;;;;;-6.46;79.13;99785.55;1736752;81;21042;-71
2021/12/28 02:58:30;;;;;;;104.50;41.43;;;;;;;-6.47;79.06;99781.30;1736818;82;20982;-71
2021/12/28 03:01:14;;;;;;;97.27;41.07;;;;;;;-6.47;79.08;99788.09;1737221;82;21006;-71
2021/12/28 03:03:43;;;;;;;101.00;41.97;;;;;;;-6.48;79.12;99782.13;1736908;82;21085;-72
2021/12/28 03:06:14;;;;;;;90.47;39.97;;;;;;;-6.49;79.19;99785.48;1736965;82;21953;-72
2021/12/28 03:08:45;;;;;;;94.83;41.47;;;;;;;-6.48;79.24;99782.52;1736770;82;21066;-72
2021/12/28 03:11:13;;;;;;;102.30;43.47;;;;;;;-6.47;79.24;99786.81;1737075;81;21514;-72
2021/12/28 03:13:48;;;;;;;102.57;41.30;;;;;;;-6.47;79.29;99782.56;1736786;82;21018;-72
2021/12/28 03:16:17;;;;;;;93.70;40.33;;;;;;;-6.46;79.27;99785.55;1736784;82;21014;-71
2021/12/28 03:18:45;;;;;;;93.57;39.80;;;;;;;-6.44;79.29;99791.98;1736988;82;21100;-71
2021/12/28 03:21:14;;;;;;;93.67;39.60;;;;;;;-6.43;79.32;99794.54;1736635;82;21058;-71
2021/12/28 03:23:41;;;;;;;96.40;41.30;;;;;;;-6.40;79.34;99796.30;1722980;82;21513;-71
2021/12/28 03:26:10;;;;;;;94.57;40.83;;;;;;;-6.40;79.29;99792.08;1731368;82;21042;-71
2021/12/28 03:28:40;;;;;;;102.33;42.80;;;;;;;-6.37;79.26;99793.84;1731490;82;21517;-71
2021/12/28 03:31:13;;;;;;;100.47;42.93;;;;;;;-6.39;79.21;99792.52;1731417;82;21945;-71
2021/12/28 03:33:43;;;;;;;103.43;42.47;;;;;;;-6.39;79.25;99785.28;1731379;82;21067;-71
2021/12/28 03:36:12;;;;;;;105.27;43.50;;;;;;;-6.39;79.27;99787.42;1731716;82;21026;-72
2021/12/28 03:38:40;;;;;;;163.87;68.90;;;;;;;-6.36;79.31;99795.13;1731453;82;21001;-71
2021/12/28 03:41:09;;;;;;;103.07;43.33;;;;;;;-6.36;79.24;99773.45;1731340;82;21017;-71
2021/12/28 03:43:43;;;;;;;99.13;42.80;;;;;;;-6.36;79.26;99759.84;1731471;82;21175;-71
2021/12/28 03:46:11;;;;;;;100.83;43.20;;;;;;;-6.37;79.34;99761.55;1731219;82;21008;-72
2021/12/28 03:48:42;;;;;;;102.33;42.47;;;;;;;-6.41;79.29;99752.09;1731599;82;21533;-71
2021/12/28 03:51:09;;;;;;;101.30;44.45;;;;;;;-6.43;79.35;99743.97;1731501;82;21020;-71
2021/12/28 03:53:36;;;;;;;104.93;44.13;;;;;;;-6.45;79.36;99743.95;1731254;82;21059;-71
2021/12/28 03:56:07;;;;;;;110.90;46.10;;;;;;;-6.48;79.42;99734.97;1737209;82;21080;-71
2021/12/28 03:58:38;;;;;;;94.87;40.90;;;;;;;-6.47;79.43;99726.90;1739561;82;21057;-71
2021/12/28 04:01:07;;;;;;;99.75;42.55;;;;;;;-6.48;79.48;99726.05;1740054;82;21063;-71
2021/12/28 04:03:34;;;;;;;103.43;43.13;;;;;;;-6.48;79.48;99731.14;1739639;82;21104;-71
2021/12/28 04:06:07;;;;;;;104.87;43.77;;;;;;;-6.49;79.40;99731.09;1739915;82;21071;-71
2021/12/28 04:08:29;;;;;;;99.20;44.13;;;;;;;-6.52;79.39;99725.52;1739431;82;21209;-71
2021/12/28 04:11:13;;;;;;;105.40;43.03;;;;;;;-6.55;79.31;99732.69;1739932;82;21087;-71
2021/12/28 04:13:25;;;;;;;102.87;43.77;;;;;;;-6.57;79.39;99738.58;1739550;82;21556;-72
2021/12/28 04:15:52;;;;;;;109.87;45.23;;;;;;;-6.55;79.40;99750.53;1739740;82;21273;-71
2021/12/28 04:18:20;;;;;;;112.10;45.90;;;;;;;-6.56;79.38;99741.59;1739707;82;21012;-72
2021/12/28 04:20:47;;;;;;;103.83;43.97;;;;;;;-6.57;79.35;99740.73;1739621;82;21153;-71
2021/12/28 04:23:14;;;;;;;104.37;43.87;;;;;;;-6.56;79.43;99752.64;1739837;82;21296;-71
2021/12/28 04:25:42;;;;;;;122.07;50.30;;;;;;;-6.53;79.42;99745.48;1739584;82;21008;-71
2021/12/28 04:28:09;;;;;;;119.77;51.70;;;;;;;-6.54;79.44;99744.63;1740012;82;21474;-71
2021/12/28 04:30:37;;;;;;;107.37;45.47;;;;;;;-6.54;79.42;99735.70;1739628;82;21308;-71
2021/12/28 04:33:04;;;;;;;113.60;46.10;;;;;;;-6.53;79.46;99728.48;1739970;82;21137;-71
2021/12/28 04:35:31;;;;;;;109.37;47.30;;;;;;;-6.50;79.54;99725.14;1739540;82;21041;-72
2021/12/28 04:37:58;;;;;;;108.10;45.97;;;;;;;-6.52;79.57;99727.65;1739831;82;21047;-71
2021/12/28 04:40:25;;;;;;;113.20;46.60;;;;;;;-6.53;79.61;99716.16;1739577;82;21001;-72
2021/12/28 04:42:53;;;;;;;110.37;47.67;;;;;;;-6.56;79.67;99723.75;1739964;82;21530;-71
2021/12/28 04:45:21;;;;;;;114.63;48.30;;;;;;;-6.56;79.69;99727.57;1739600;82;21139;-71
2021/12/28 04:47:49;;;;;;;155.53;59.30;;;;;;;-6.54;79.75;99731.88;1739919;82;21039;-71
2021/12/28 04:50:16;;;;;;;112.73;47.83;;;;;;;-6.54;79.74;99727.16;1739512;82;21044;-71
2021/12/28 04:52:43;;;;;;;112.83;46.10;;;;;;;-6.54;79.69;99719.13;1733045;81;21011;-72
2021/12/28 04:55:15;;;;;;;108.03;46.13;;;;;;;-6.54;79.72;99720.80;1726539;82;21035;-71
2021/12/28 04:57:43;;;;;;;110.20;45.60;;;;;;;-6.55;79.74;99716.53;1724008;83;21100;-71
2021/12/28 05:00:21;;;;;;;105.53;43.90;;;;;;;-6.57;79.77;99713.97;1724178;83;21525;-71
2021/12/28 05:02:48;;;;;;;106.83;45.10;;;;;;;-6.59;79.86;99700.33;1723959;83;20987;-71
2021/12/28 05:05:15;;;;;;;101.67;45.87;;;;;;;-6.56;79.93;99705.91;1724086;82;21015;-72
2021/12/28 05:07:42;;;;;;;114.90;46.50;;;;;;;-6.57;79.79;99703.78;1733822;81;21055;-72
2021/12/28 05:10:11;;;;;;;117.87;50.17;;;;;;;-6.59;79.82;99707.97;1722329;81;21200;-71
2021/12/28 05:12:38;;;;;;;124.07;53.27;;;;;;;-6.62;79.79;99699.38;1731128;82;21003;-72
2021/12/28 05:15:07;;;;;;;112.20;48.00;;;;;;;-6.64;79.83;99694.27;1736723;82;21122;-72
2021/12/28 05:17:34;;;;;;;113.00;48.47;;;;;;;-6.63;79.92;99688.33;1736270;82;21038;-72
2021/12/28 05:20:01;;;;;;;118.17;48.70;;;;;;;-6.64;79.92;99675.16;1736697;82;21646;-72
2021/12/28 05:22:28;;;;;;;117.20;48.03;;;;;;;-6.63;79.99;99670.91;1736435;82;21163;-72
2021/12/28 05:24:55;;;;;;;110.90;49.40;;;;;;;-6.66;79.95;99667.03;1732477;82;20970;-73
2021/12/28 05:27:22;;;;;;;121.37;51.20;;;;;;;-6.67;80.00;99663.63;1730007;82;21368;-72
2021/12/28 05:29:49;;;;;;;120.73;51.50;;;;;;;-6.67;80.03;99664.05;1730134;83;21075;-72
2021/12/28 05:32:17;;;;;;;136.43;55.83;;;;;;;-6.69;80.04;99658.91;1730160;83;21027;-72
2021/12/28 05:34:44;;;;;;;154.77;62.03;;;;;;;-6.71;80.04;99659.28;1730110;82;21086;-72
2021/12/28 05:37:11;;;;;;;149.57;62.77;;;;;;;-6.71;80.11;99661.83;1730048;83;21050;-71
2021/12/28 05:39:38;;;;;;;173.97;70.23;;;;;;;-6.70;80.17;99663.56;1730083;83;21235;-72
2021/12/28 05:42:07;;;;;;;142.13;59.77;;;;;;;-6.68;80.16;99664.85;1730014;82;21122;-72
2021/12/28 05:44:34;;;;;;;146.13;60.03;;;;;;;-6.68;80.18;99654.66;1748385;81;21016;-71
2021/12/28 05:47:01;;;;;;;156.50;65.37;;;;;;;-6.66;80.26;99655.14;1755846;81;22269;-71
2021/12/28 05:49:28;;;;;;;125.80;52.73;;;;;;;-6.64;80.27;99643.72;1755751;81;21377;-71
2021/12/28 05:51:55;;;;;;;127.97;55.37;;;;;;;-6.62;80.27;99649.67;1755580;81;21050;-71
2021/12/28 05:54:22;;;;;;;128.67;55.30;;;;;;;-6.62;80.26;99646.73;1755708;80;21597;-71
2021/12/28 05:56:49;;;;;;;132.97;55.73;;;;;;;-6.61;80.28;99640.80;1756149;80;21268;-71
2021/12/28 05:59:17;;;;;;;122.10;52.93;;;;;;;-6.60;80.35;99641.23;1756488;81;21338;-71
2021/12/28 06:01:44;;;;;;;121.33;52.70;;;;;;;-6.58;80.41;99640.86;1756826;80;20996;-72
2021/12/28 06:04:11;;;;;;;131.47;56.13;;;;;;;-6.55;80.37;99643.88;1756569;81;21012;-72
2021/12/28 06:06:38;;;;;;;130.00;55.17;;;;;;;-6.55;80.36;99638.36;1741693;81;21083;-72
2021/12/28 06:09:06;;;;;;;121.90;51.90;;;;;;;-6.55;80.41;99631.14;1731284;82;21055;-74
2021/12/28 06:11:33;;;;;;;133.20;55.47;;;;;;;-6.53;80.46;99635.86;1731576;82;21100;-72
2021/12/28 06:14:00;;;;;;;117.80;50.53;;;;;;;-6.53;80.46;99627.79;1731334;82;21050;-71
2021/12/28 06:16:28;;;;;;;127.93;54.37;;;;;;;-6.52;80.46;99636.30;1730707;82;21102;-71
2021/12/28 06:18:55;;;;;;;128.40;55.03;;;;;;;-6.54;80.46;99624.81;1731245;82;21066;-71
2021/12/28 06:21:22;;;;;;;125.27;51.33;;;;;;;-6.52;80.50;99622.27;1730778;82;21289;-72
2021/12/28 06:23:49;;;;;;;128.27;54.27;;;;;;;-6.52;80.56;99628.22;1710941;82;21114;-72
2021/12/28 06:26:16;;;;;;;119.30;53.33;;;;;;;-6.49;80.61;99621.05;1708302;82;21019;-72
2021/12/28 06:28:43;;;;;;;119.10;50.40;;;;;;;-6.49;80.60;99620.20;1744621;82;21088;-71
2021/12/28 06:31:10;;;;;;;121.70;51.93;;;;;;;-6.46;80.60;99625.35;1744265;82;20992;-73
2021/12/28 06:33:37;;;;;;;121.50;52.10;;;;;;;-6.46;80.61;99630.03;1744148;82;21391;-73
2021/12/28 06:36:05;;;;;;;128.37;53.30;;;;;;;-6.42;80.64;99628.42;1732356;82;21508;-73
2021/12/28 06:38:32;;;;;;;129.07;56.43;;;;;;;-6.41;80.64;99626.30;1729884;82;21047;-73
2021/12/28 06:40:59;;;;;;;125.23;52.20;;;;;;;-6.39;80.63;99631.02;1730986;81;21078;-74
2021/12/28 06:43:26;;;;;;;127.47;53.67;;;;;;;-6.39;80.58;99646.33;1732866;81;21020;-73
2021/12/28 06:45:55;;;;;;;125.83;56.00;;;;;;;-6.37;80.59;99630.64;1731166;82;20959;-71
2021/12/28 06:48:22;;;;;;;122.63;50.67;;;;;;;-6.36;80.57;99628.53;1731192;82;21175;-75
2021/12/28 06:50:50;;;;;;;118.87;50.37;;;;;;;-6.36;80.56;99623.00;1730921;81;21527;-73
2021/12/28 06:53:18;;;;;;;120.23;50.93;;;;;;;-6.36;80.52;99619.19;1731346;81;21502;-75
2021/12/28 06:55:45;;;;;;;114.13;46.73;;;;;;;-6.36;80.58;99620.87;1728183;81;20980;-75
2021/12/28 06:58:12;;;;;;;111.00;46.77;;;;;;;-6.35;80.70;99613.66;1736250;82;21444;-73
2021/12/28 07:00:41;;;;;;;111.63;48.43;;;;;;;-6.32;80.76;99614.98;1734847;82;21050;-72
2021/12/28 07:03:08;;;;;;;112.10;46.97;;;;;;;-6.32;80.80;99606.95;1702406;84;21016;-72
2021/12/28 07:05:36;;;;;;;114.53;49.33;;;;;;;-6.29;80.82;99609.55;1702498;82;21516;-74
2021/12/28 07:08:03;;;;;;;113.13;49.13;;;;;;;-6.29;80.80;99609.55;1749082;81;21504;-73
2021/12/28 07:10:30;;;;;;;111.60;48.80;;;;;;;-6.29;80.82;99603.17;1752827;81;21527;-71
2021/12/28 07:12:58;;;;;;;113.50;49.63;;;;;;;-6.27;80.80;99603.61;1730280;82;22182;-72
2021/12/28 07:15:25;;;;;;;123.03;48.40;;;;;;;-6.27;80.85;99595.95;1729877;82;20920;-72
2021/12/28 07:17:52;;;;;;;114.87;49.03;;;;;;;-6.26;80.88;99598.94;1725502;82;21067;-74
2021/12/28 07:20:21;;;;;;;117.90;49.27;;;;;;;-6.26;80.87;99598.55;1731600;81;20996;-72
2021/12/28 07:22:48;;;;;;;117.17;49.37;;;;;;;-6.26;80.89;99598.94;1731030;81;20997;-75
2021/12/28 07:25:15;;;;;;;106.83;49.10;;;;;;;-6.24;80.95;99596.00;1734508;81;21199;-73
2021/12/28 07:27:41;;;;;;;117.63;51.17;;;;;;;-6.22;80.98;99586.70;1731196;81;21028;-74
2021/12/28 07:30:12;;;;;;;117.03;51.50;;;;;;;-6.19;80.92;99582.50;1731646;81;21425;-72
2021/12/28 07:32:41;;;;;;;108.23;49.30;;;;;;;-6.19;80.89;99581.22;1732442;81;21035;-73
2021/12/28 07:35:10;;;;;;;121.97;50.37;;;;;;;-6.17;80.94;99577.44;1731445;81;21036;-72
2021/12/28 07:37:37;;;;;;;116.90;51.27;;;;;;;-6.16;80.97;99580.00;1730464;81;21081;-72
2021/12/28 07:40:07;;;;;;;109.27;49.27;;;;;;;-6.13;81.11;99580.05;1731307;81;21016;-72
2021/12/28 07:42:35;;;;;;;115.00;49.93;;;;;;;-6.11;81.17;99582.64;1731213;81;21083;-72
2021/12/28 07:45:06;;;;;;;108.90;47.83;;;;;;;-6.08;81.20;99584.81;1731177;81;21063;-73
2021/12/28 07:47:33;;;;;;;107.45;47.03;;;;;;;-6.02;81.26;99588.30;1700707;82;21063;-73
2021/12/28 07:50:00;;;;;;;112.17;49.23;;;;;;;-5.98;81.28;99580.73;1731407;81;21107;-73
2021/12/28 07:52:27;;;;;;;111.43;48.57;;;;;;;-5.93;81.33;99578.23;1731136;81;21094;-73
2021/12/28 07:54:54;;;;;;;122.83;51.10;;;;;;;-5.88;81.38;99580.42;1731271;81;21005;-74
2021/12/28 07:57:21;;;;;;;117.97;50.10;;;;;;;-5.82;81.45;99581.78;1736184;81;21039;-73
2021/12/28 07:59:47;;;;;;;121.30;52.10;;;;;;;-5.77;81.53;99576.34;1740275;81;21008;-73
2021/12/28 08:02:14;;;;;;;118.53;51.17;;;;;;;-5.69;81.64;99586.25;1739101;81;21058;-72
2021/12/28 08:04:41;;;;;;;120.63;54.57;;;;;;;-5.57;81.76;99597.48;1738213;81;21536;-72
2021/12/28 08:07:08;;;;;;;128.03;55.63;;;;;;;-5.49;81.70;99601.00;1739808;81;20939;-71
2021/12/28 08:09:35;;;;;;;125.77;56.37;;;;;;;-5.40;81.81;99588.39;1747909;81;21447;-72
2021/12/28 08:12:03;;;;;;;125.43;53.23;;;;;;;-5.32;81.75;99589.75;1740697;81;21025;-72
2021/12/28 08:14:30;;;;;;;117.40;54.67;;;;;;;-5.25;81.71;99574.96;1744569;81;21122;-72
2021/12/28 08:16:56;;;;;;;116.17;52.07;;;;;;;-5.19;81.67;99569.92;1745328;81;21018;-72
2021/12/28 08:19:23;;;;;;;114.60;52.30;;;;;;;-5.12;81.74;99563.22;1744969;81;21050;-76
2021/12/28 08:21:51;;;;;;;113.77;51.20;;;;;;;-5.04;81.71;99568.00;1763326;81;21042;-74
2021/12/28 08:24:17;;;;;;;119.47;53.43;;;;;;;-4.95;81.82;99572.80;1755773;81;21023;-75
2021/12/28 08:26:44;;;;;;;120.00;54.00;;;;;;;-4.83;81.86;99573.35;1737498;81;21764;-72
2021/12/28 08:29:11;;;;;;;109.70;50.00;;;;;;;-4.72;81.84;99564.53;1738254;81;21564;-75
2021/12/28 08:31:39;;;;;;;111.57;53.30;;;;;;;-4.61;81.88;99563.37;1740489;81;21023;-74
2021/12/28 08:34:06;;;;;;;109.03;49.43;;;;;;;-4.51;81.79;99562.64;1744129;81;21050;-73
2021/12/28 08:36:33;;;;;;;115.07;49.90;;;;;;;-4.41;81.86;99554.62;1736740;81;21047;-73
2021/12/28 08:39:00;;;;;;;110.90;49.60;;;;;;;-4.33;81.75;99547.88;1744524;81;21294;-76
2021/12/28 08:41:27;;;;;;;103.80;48.67;;;;;;;-4.25;81.78;99552.64;1759419;81;21483;-77
2021/12/28 08:43:54;;;;;;;101.37;46.97;;;;;;;-4.16;81.78;99551.43;1758454;81;21019;-75
2021/12/28 08:46:21;;;;;;;102.40;47.37;;;;;;;-4.09;81.72;99554.49;1747567;81;21034;-74
2021/12/28 08:48:48;;;;;;;103.57;49.27;;;;;;;-4.02;81.67;99546.43;1731493;81;20991;-73
2021/12/28 08:51:15;;;;;;;105.93;49.60;;;;;;;-3.94;81.66;99543.51;1752984;81;21109;-73
2021/12/28 08:53:42;;;;;;;109.47;48.53;;;;;;;-3.84;81.68;99537.63;1754106;81;21023;-73
2021/12/28 08:56:09;;;;;;;99.60;49.60;;;;;;;-3.77;81.65;99538.94;1743300;81;20975;-72
2021/12/28 08:58:36;;;;;;;100.07;47.67;;;;;;;-3.69;81.69;99532.16;1734892;81;21028;-73
2021/12/28 09:01:03;;;;;;;97.77;47.37;;;;;;;-3.60;81.69;99526.70;1735338;81;21017;-73
2021/12/28 09:03:30;;;;;;;100.20;48.27;;;;;;;-3.50;81.67;99524.17;1735798;81;21817;-73
2021/12/28 09:05:57;;;;;;;109.87;48.67;;;;;;;-3.42;81.63;99525.08;1726025;81;21011;-74
2021/12/28 09:08:24;;;;;;;96.00;45.43;;;;;;;-3.34;81.52;99527.69;1736635;81;20994;-73
2021/12/28 09:10:51;;;;;;;103.27;48.57;;;;;;;-3.27;81.57;99526.84;1733441;81;21044;-73
2021/12/28 09:13:18;;;;;;;123.77;56.90;;;;;;;-3.21;81.55;99517.93;1732746;81;21035;-73
2021/12/28 09:15:47;;;;;;;162.70;74.07;;;;;;;-3.14;81.56;99510.68;1748200;81;21184;-73
2021/12/28 09:18:14;;;;;;;104.60;49.53;;;;;;;-3.08;81.57;99513.69;1735615;81;21087;-74
2021/12/28 09:20:41;;;;;;;99.83;49.97;;;;;;;-3.02;81.54;99512.42;1727201;81;20981;-73
2021/12/28 09:23:11;;;;;;;106.43;50.53;;;;;;;-2.97;81.47;99516.72;1734287;81;21063;-73
2021/12/28 09:25:40;;;;;;;120.20;59.00;;;;;;;-2.90;81.55;99516.77;1738633;81;21047;-73
2021/12/28 09:28:08;;;;;;;110.03;51.03;;;;;;;-2.83;81.57;99515.48;1734079;81;21129;-74
2021/12/28 09:30:38;;;;;;;105.07;49.53;;;;;;;-2.76;81.58;99516.37;1738186;81;21000;-73
2021/12/28 09:33:05;;;;;;;98.27;47.17;;;;;;;-2.69;81.54;99510.38;1736189;81;21016;-73
2021/12/28 09:35:33;;;;;;;103.33;48.67;;;;;;;-2.63;81.56;99507.86;1735655;81;22332;-73
2021/12/28 09:38:00;;;;;;;100.90;48.90;;;;;;;-2.56;81.56;99505.72;1733242;81;21058;-74
2021/12/28 09:40:29;;;;;;;109.33;49.77;;;;;;;-2.50;81.50;99503.15;1734703;81;21092;-77
2021/12/28 09:42:57;;;;;;;101.07;48.17;;;;;;;-2.43;81.53;99504.47;1737378;81;21112;-75
2021/12/28 09:45:24;;;;;;;96.20;46.77;;;;;;;-2.38;81.45;99497.59;1735452;81;20927;-74
2021/12/28 09:47:51;;;;;;;100.00;46.70;;;;;;;-2.27;81.60;99498.49;1734109;81;21489;-74
2021/12/28 09:50:21;;;;;;;106.70;50.60;;;;;;;-2.18;81.50;99493.78;1736724;81;21039;-74
2021/12/28 09:52:50;;;;;;;96.97;48.13;;;;;;;-2.10;81.53;99486.50;1735686;81;21155;-73
2021/12/28 09:55:22;;;;;;;100.70;45.30;;;;;;;-1.99;81.46;99485.65;1733872;81;21044;-75
2021/12/28 09:57:50;;;;;;;88.90;44.00;;;;;;;-1.93;81.37;99478.78;1734721;81;21032;-72
2021/12/28 10:00:20;;;;;;;92.57;43.40;;;;;;;-1.88;81.27;99482.20;1740063;81;21638;-72
2021/12/28 10:02:47;;;;;;;95.27;45.80;;;;;;;-1.82;81.32;99479.62;1739135;81;21043;-74
2021/12/28 10:05:20;;;;;;;88.67;44.60;;;;;;;-1.76;81.23;99468.47;1742249;81;21180;-74
2021/12/28 10:07:56;;;;;;;87.53;42.83;;;;;;;-1.69;81.18;99465.45;1737106;81;21483;-74
2021/12/28 10:10:23;;;;;;;82.53;40.57;;;;;;;-1.64;81.19;99465.02;1738733;81;21027;-75
2021/12/28 10:12:57;;;;;;;85.43;40.57;;;;;;;-1.57;81.30;99457.73;1741295;81;20928;-75
2021/12/28 10:15:28;;;;;;;90.37;44.03;;;;;;;-1.48;81.21;99455.11;1749648;81;21534;-74
2021/12/28 10:17:58;;;;;;;94.97;43.57;;;;;;;-1.41;81.12;99449.55;1710016;83;22060;-74
2021/12/28 10:20:33;;;;;;;83.72;41.98;;;;;;;-1.36;81.06;99440.95;1717206;82;21023;-76
2021/12/28 10:23:03;;;;;;;84.77;41.60;;;;;;;-1.30;81.01;99438.78;1740190;81;21006;-74
2021/12/28 10:25:36;;;;;;;;;;;;;;;-1.22;81.00;99440.01;1743012;81;21039;-74
2021/12/28 10:28:08;;;;;;;83.80;41.80;;;;;;;-1.16;80.96;99427.99;1747274;81;21730;-74
2021/12/28 10:30:46;;;;;;;84.53;41.00;;;;;;;-1.09;80.82;99427.52;1759698;81;21983;-74
2021/12/28 10:33:21;;;;;;;85.87;41.63;;;;;;;-1.03;80.82;99423.62;1744232;81;21024;-75
2021/12/28 10:35:52;;;;;;;86.77;42.40;;;;;;;-0.95;80.90;99415.42;1743497;81;20995;-74
2021/12/28 10:38:31;;;;;;;85.93;41.43;;;;;;;-0.86;80.90;99417.08;1733544;81;20991;-73
2021/12/28 10:41:03;;;;;;;82.27;40.53;;;;;;;-0.77;80.95;99411.05;1743458;81;20988;-76
2021/12/28 10:43:37;;;;;;;83.40;41.40;;;;;;;-0.70;80.78;99405.82;1747235;81;21226;-74
2021/12/28 10:46:09;;;;;;;81.43;39.73;;;;;;;-0.65;80.73;99402.38;1754562;81;21094;-73
2021/12/28 10:48:48;;;;;;;84.00;40.83;;;;;;;-0.62;80.61;99405.77;1741092;81;22259;-76
2021/12/28 10:51:23;;;;;;;81.33;38.83;;;;;;;-0.58;80.51;99398.87;1742844;81;21089;-72
2021/12/28 10:56:35;;;;;;;80.87;39.85;;;;;;;-0.50;80.57;99388.08;1748079;81;22098;-71
2021/12/28 10:59:05;;;;;;;75.67;37.93;;;;;;;-0.45;80.43;99390.19;1745917;80;21618;-72
2021/12/28 11:01:38;;;;;;;82.20;40.88;;;;;;;-0.45;80.26;99378.60;1739689;82;21015;-71
2021/12/28 11:04:09;;;;;;;77.87;39.70;;;;;;;-0.45;80.23;99369.16;1726780;82;21062;-71
2021/12/28 11:06:41;;;;;;;76.20;39.77;;;;;;;-0.43;80.22;99363.16;1726248;82;21277;-71
2021/12/28 11:09:13;;;;;;;77.77;39.77;;;;;;;-0.41;80.20;99355.00;1725922;82;21162;-72
2021/12/28 11:11:41;;;;;;;81.87;40.70;;;;;;;-0.38;80.13;99360.11;1730667;82;20913;-71
2021/12/28 11:14:16;;;;;;;83.23;42.13;;;;;;;-0.38;80.00;99354.97;1731043;82;21051;-71
2021/12/28 11:16:56;;;;;;;89.80;42.93;;;;;;;-0.37;79.96;99354.94;1731354;82;21539;-71
2021/12/28 11:19:37;;;;;;;;;;;;;;;-0.35;80.06;99345.48;1732062;82;20988;-72
2021/12/28 11:22:09;;;;;;;102.42;48.70;;;;;;;-0.31;80.03;99338.57;1725123;83;21144;-72
2021/12/28 11:24:42;;;;;;;95.40;45.50;;;;;;;-0.31;79.99;99337.28;1730565;82;21007;-71
2021/12/28 11:27:11;;;;;;;88.43;43.07;;;;;;;-0.31;79.95;99331.69;1730131;82;21038;-71